createdAt,value
2023-02-11T00:01:26.512Z,7.70
2023-02-11T00:03:55.035Z,7.68
2023-02-11T00:06:23.677Z,7.74
2023-02-11T00:08:51.520Z,7.69
2023-02-11T00:11:21.617Z,7.70
2023-02-11T00:13:50.094Z,7.61
2023-02-11T00:16:20.143Z,7.63
2023-02-11T00:18:50.363Z,7.60
2023-02-11T00:21:20.261Z,7.60
2023-02-11T00:23:48.764Z,7.59
2023-02-11T00:26:18.649Z,7.55
2023-02-11T00:28:48.838Z,7.45
2023-02-11T00:31:17.753Z,7.45
2023-02-11T00:33:46.176Z,7.47
2023-02-11T00:36:16.870Z,7.42
2023-02-11T00:38:48.845Z,7.40
2023-02-11T00:41:17.731Z,7.30
2023-02-11T00:43:45.908Z,7.34
2023-02-11T00:46:14.061Z,7.35
2023-02-11T00:48:43.092Z,7.41
2023-02-11T00:51:11.632Z,7.47
2023-02-11T00:53:40.954Z,7.49
2023-02-11T00:56:09.428Z,7.53
2023-02-11T00:58:37.472Z,7.55
2023-02-11T01:01:05.693Z,7.50
2023-02-11T01:03:33.492Z,7.46
2023-02-11T01:06:01.326Z,7.46
2023-02-11T01:08:29.223Z,7.43
2023-02-11T01:11:01.108Z,7.32
2023-02-11T01:13:30.115Z,7.27
2023-02-11T01:15:58.432Z,7.23
2023-02-11T01:18:26.838Z,7.24
2023-02-11T01:20:55.058Z,7.29
2023-02-11T01:23:24.602Z,7.32
2023-02-11T01:25:52.814Z,7.33
2023-02-11T01:28:25.119Z,7.35
2023-02-11T01:30:54.508Z,7.30
2023-02-11T01:33:23.403Z,7.29
2023-02-11T01:35:51.601Z,7.26
2023-02-11T01:38:21.665Z,7.33
2023-02-11T01:40:51.127Z,7.32
2023-02-11T01:43:23.472Z,7.35
2023-02-11T01:46:05.338Z,7.36
2023-02-11T01:48:37.219Z,7.40
2023-02-11T01:51:09.077Z,7.34
2023-02-11T01:53:55.138Z,7.36
2023-02-11T01:56:44.370Z,7.36
2023-02-11T01:59:18.464Z,7.33
2023-02-11T02:01:51.399Z,7.24
2023-02-11T02:04:21.183Z,7.33
2023-02-11T02:06:54.408Z,7.32
2023-02-11T02:09:26.587Z,7.27
2023-02-11T02:11:54.380Z,7.29
2023-02-11T02:14:23.564Z,7.31
2023-02-11T02:16:54.076Z,7.30
2023-02-11T02:19:53.652Z,7.28
2023-02-11T02:22:47.856Z,7.27
2023-02-11T02:25:36.604Z,7.27
2023-02-11T02:31:34.320Z,7.19
2023-02-11T02:34:06.583Z,7.14
2023-02-11T02:36:41.094Z,7.16
2023-02-11T02:39:12.690Z,7.15
2023-02-11T02:41:41.852Z,7.19
2023-02-11T02:44:10.208Z,7.06
2023-02-11T02:46:38.548Z,7.10
2023-02-11T02:49:14.451Z,7.12
2023-02-11T02:52:15.989Z,7.13
2023-02-11T02:55:10.642Z,7.20
2023-02-11T02:57:55.008Z,7.22
2023-02-11T03:00:29.748Z,7.22
2023-02-11T03:03:10.557Z,7.25
2023-02-11T03:05:49.898Z,7.20
2023-02-11T03:08:24.340Z,7.25
2023-02-11T03:10:54.418Z,7.23
2023-02-11T03:13:27.406Z,7.25
2023-02-11T03:15:58.751Z,7.27
2023-02-11T03:18:29.884Z,7.27
2023-02-11T03:21:00.937Z,7.29
2023-02-11T03:23:31.945Z,7.29
2023-02-11T03:26:03.981Z,7.27
2023-02-11T03:28:36.949Z,7.27
2023-02-11T03:31:15.807Z,7.33
2023-02-11T03:33:53.144Z,7.33
2023-02-11T03:36:28.363Z,7.27
2023-02-11T03:38:59.370Z,7.37
2023-02-11T03:41:27.418Z,7.35
2023-02-11T03:43:58.437Z,7.38
2023-02-11T03:46:32.293Z,7.42
2023-02-11T03:49:04.778Z,7.39
2023-02-11T03:51:34.575Z,7.40
2023-02-11T03:54:06.828Z,7.37
2023-02-11T03:56:39.394Z,7.39
2023-02-11T03:59:07.156Z,7.38
2023-02-11T04:01:35.356Z,7.40
2023-02-11T04:04:03.186Z,7.40
2023-02-11T04:06:30.946Z,7.41
2023-02-11T04:09:00.246Z,7.43
2023-02-11T04:11:28.069Z,7.42
2023-02-11T04:13:55.778Z,7.44
2023-02-11T04:16:23.809Z,7.44
2023-02-11T04:18:51.557Z,7.46
2023-02-11T04:21:19.552Z,7.32
2023-02-11T04:23:47.253Z,7.37
2023-02-11T04:26:16.584Z,7.39
2023-02-11T04:28:44.333Z,7.43
2023-02-11T04:31:12.856Z,7.42
2023-02-11T04:33:40.625Z,7.43
2023-02-11T04:36:09.273Z,7.43
2023-02-11T04:38:37.188Z,7.42
2023-02-11T04:41:04.944Z,7.46
2023-02-11T04:43:33.999Z,7.42
2023-02-11T04:46:01.690Z,7.43
2023-02-11T04:48:29.476Z,7.42
2023-02-11T04:50:57.339Z,7.41
2023-02-11T04:53:25.113Z,7.41
2023-02-11T04:55:53.318Z,7.45
2023-02-11T04:58:21.541Z,7.33
2023-02-11T05:00:50.802Z,7.43
2023-02-11T05:03:18.760Z,7.41
2023-02-11T05:05:46.568Z,7.48
2023-02-11T05:08:17.161Z,7.48
2023-02-11T05:10:47.967Z,7.48
2023-02-11T05:13:15.958Z,7.49
2023-02-11T05:15:43.656Z,7.48
2023-02-11T05:18:14.746Z,7.51
2023-02-11T05:20:42.674Z,7.50
2023-02-11T05:23:10.750Z,7.41
2023-02-11T05:25:39.298Z,7.50
2023-02-11T05:28:07.641Z,7.52
2023-02-11T05:30:35.510Z,7.50
2023-02-11T05:33:03.266Z,7.51
2023-02-11T05:35:32.424Z,7.52
2023-02-11T05:38:00.137Z,7.52
2023-02-11T05:40:27.934Z,7.53
2023-02-11T05:42:55.565Z,7.49
2023-02-11T05:45:23.288Z,7.34
2023-02-11T05:47:50.977Z,7.51
2023-02-11T05:50:18.825Z,7.49
2023-02-11T05:52:47.948Z,7.51
2023-02-11T05:55:16.001Z,7.50
2023-02-11T05:57:43.729Z,7.49
2023-02-11T06:00:12.721Z,7.47
2023-02-11T06:02:41.326Z,7.38
2023-02-11T06:05:10.143Z,7.47
2023-02-11T06:07:37.947Z,7.48
2023-02-11T06:10:08.664Z,7.45
2023-02-11T06:12:38.044Z,7.48
2023-02-11T06:15:17.505Z,7.49
2023-02-11T06:17:45.241Z,7.46
2023-02-11T06:20:13.475Z,7.43
2023-02-11T06:22:41.208Z,7.46
2023-02-11T06:25:11.156Z,7.46
2023-02-11T06:27:39.795Z,7.39
2023-02-11T06:30:09.076Z,7.49
2023-02-11T06:32:44.555Z,7.45
2023-02-11T06:35:14.047Z,7.49
2023-02-11T06:37:47.932Z,7.49
2023-02-11T06:40:17.216Z,7.49
2023-02-11T06:42:44.990Z,7.48
2023-02-11T06:45:13.305Z,7.49
2023-02-11T06:47:41.987Z,7.49
2023-02-11T06:50:17.436Z,7.48
2023-02-11T06:52:45.194Z,7.48
2023-02-11T06:55:15.339Z,7.48
2023-02-11T06:57:44.465Z,7.49
2023-02-11T07:00:14.122Z,7.48
2023-02-11T07:02:41.991Z,7.50
2023-02-11T07:05:10.544Z,7.49
2023-02-11T07:07:41.109Z,7.46
2023-02-11T07:10:09.429Z,7.44
2023-02-11T07:12:37.210Z,7.41
2023-02-11T07:15:06.796Z,7.23
2023-02-11T07:17:35.783Z,7.39
2023-02-11T07:20:03.554Z,7.45
2023-02-11T07:22:31.377Z,7.43
2023-02-11T07:24:59.128Z,7.42
2023-02-11T07:27:27.134Z,7.46
2023-02-11T07:29:54.947Z,7.40
2023-02-11T07:32:24.132Z,7.40
2023-02-11T07:34:51.971Z,7.46
2023-02-11T07:37:19.771Z,7.47
2023-02-11T07:39:47.524Z,7.48
2023-02-11T07:42:15.298Z,7.49
2023-02-11T07:44:43.243Z,7.49
2023-02-11T07:47:11.040Z,7.48
2023-02-11T07:49:40.142Z,7.47
2023-02-11T07:52:07.856Z,7.48
2023-02-11T07:54:38.685Z,7.48
2023-02-11T07:57:06.619Z,7.49
2023-02-11T07:59:34.905Z,7.52
2023-02-11T08:02:02.772Z,7.50
2023-02-11T08:04:33.580Z,7.46
2023-02-11T08:07:02.798Z,7.50
2023-02-11T08:09:32.782Z,7.50
2023-02-11T08:12:02.250Z,7.50
2023-02-11T08:14:29.996Z,7.57
2023-02-11T08:16:57.808Z,7.54
2023-02-11T08:19:25.620Z,7.50
2023-02-11T08:21:56.285Z,7.52
2023-02-11T08:24:25.523Z,7.53
2023-02-11T08:26:53.719Z,7.52
2023-02-11T08:29:21.450Z,7.58
2023-02-11T08:31:49.691Z,7.55
2023-02-11T08:34:19.262Z,7.53
2023-02-11T08:36:48.533Z,7.47
2023-02-11T08:39:20.511Z,7.47
2023-02-11T08:41:51.421Z,7.52
2023-02-11T08:44:20.054Z,7.54
2023-02-11T08:46:48.131Z,7.47
2023-02-11T08:49:16.377Z,7.51
2023-02-11T08:51:44.716Z,7.54
2023-02-11T08:54:12.650Z,7.54
2023-02-11T08:56:41.104Z,7.55
2023-02-11T08:59:13.830Z,7.60
2023-02-11T09:01:41.743Z,7.60
2023-02-11T09:04:11.028Z,7.64
2023-02-11T09:06:38.881Z,7.59
2023-02-11T09:09:06.792Z,7.60
2023-02-11T09:11:36.691Z,7.64
2023-02-11T09:14:05.338Z,7.67
2023-02-11T09:16:37.358Z,7.69
2023-02-11T09:19:06.467Z,7.67
2023-02-11T09:21:34.723Z,7.71
2023-02-11T09:24:02.689Z,7.68
2023-02-11T09:26:32.400Z,7.68
2023-02-11T09:29:01.608Z,7.72
2023-02-11T09:31:31.610Z,7.75
2023-02-11T09:34:03.657Z,7.62
2023-02-11T09:36:33.286Z,7.72
2023-02-11T09:39:02.492Z,7.73
2023-02-11T09:42:05.571Z,7.78
2023-02-11T09:44:35.470Z,7.72
2023-02-11T09:47:06.069Z,7.73
2023-02-11T09:49:41.779Z,7.77
2023-02-11T09:52:20.189Z,7.78
2023-02-11T09:54:55.857Z,7.74
2023-02-11T09:57:30.457Z,7.76
2023-02-11T09:59:58.460Z,7.85
2023-02-11T10:02:33.516Z,7.79
2023-02-11T10:05:18.799Z,7.89
2023-02-11T10:07:52.858Z,7.89
2023-02-11T10:10:38.871Z,7.88
2023-02-11T10:13:28.429Z,7.59
2023-02-11T10:16:02.934Z,7.86
2023-02-11T10:18:47.084Z,7.85
2023-02-11T10:21:24.732Z,7.76
2023-02-11T10:23:57.848Z,7.90
2023-02-11T10:26:30.863Z,7.76
2023-02-11T10:29:06.533Z,7.91
2023-02-11T10:31:40.771Z,7.91
2023-02-11T10:34:12.263Z,7.88
2023-02-11T10:36:43.786Z,7.84
2023-02-11T10:39:14.387Z,7.93
2023-02-11T10:41:45.035Z,7.92
2023-02-11T10:44:24.233Z,7.97
2023-02-11T10:46:54.767Z,7.89
2023-02-11T10:49:36.249Z,7.97
2023-02-11T10:52:24.016Z,7.82
2023-02-11T10:55:16.282Z,8.07
2023-02-11T10:57:56.564Z,8.07
2023-02-11T11:00:38.161Z,7.94
2023-02-11T11:03:16.140Z,7.97
2023-02-11T11:05:49.358Z,8.12
2023-02-11T11:08:20.129Z,8.05
2023-02-11T11:10:49.798Z,8.12
2023-02-11T11:13:29.669Z,7.99
2023-02-11T11:16:25.883Z,8.10
2023-02-11T11:18:55.422Z,8.06
2023-02-11T11:21:25.915Z,8.09
2023-02-11T11:23:58.275Z,8.12
2023-02-11T11:26:28.467Z,8.09
2023-02-11T11:28:59.930Z,8.13
2023-02-11T11:31:31.376Z,8.12
2023-02-11T11:34:02.141Z,8.11
2023-02-11T11:36:37.604Z,8.17
2023-02-11T11:39:21.553Z,8.15
2023-02-11T11:41:52.704Z,8.19
2023-02-11T11:44:26.982Z,8.16
2023-02-11T11:47:10.334Z,8.11
2023-02-11T11:49:43.896Z,8.15
2023-02-11T11:52:21.619Z,8.09
2023-02-11T11:54:56.581Z,8.07
2023-02-11T11:57:28.640Z,8.11
2023-02-11T11:59:56.975Z,8.17
2023-02-11T12:02:53.566Z,8.11
2023-02-11T12:05:28.846Z,8.08
2023-02-11T12:08:08.760Z,8.09
2023-02-11T12:10:52.451Z,8.11
2023-02-11T12:13:30.767Z,8.10
2023-02-11T12:16:09.946Z,8.12
2023-02-11T12:18:57.871Z,8.08
2023-02-11T12:21:36.090Z,8.06
2023-02-11T12:24:17.265Z,8.10
2023-02-11T12:26:50.798Z,8.12
2023-02-11T12:29:28.780Z,8.17
2023-02-11T12:32:08.843Z,8.16
2023-02-11T12:35:02.499Z,8.17
2023-02-11T12:37:43.238Z,8.19
2023-02-11T12:40:19.271Z,8.17
2023-02-11T12:43:15.182Z,8.26
2023-02-11T12:46:12.817Z,8.29
2023-02-11T12:48:53.401Z,8.32
2023-02-11T12:51:33.396Z,8.30
2023-02-11T12:54:16.987Z,8.24
2023-02-11T12:56:51.589Z,8.25
2023-02-11T12:59:35.944Z,8.23
2023-02-11T13:02:13.634Z,8.22
2023-02-11T13:04:47.416Z,8.21
2023-02-11T13:07:20.868Z,8.24
2023-02-11T13:09:54.355Z,8.28
2023-02-11T13:12:40.444Z,8.26
2023-02-11T13:15:15.334Z,8.28
2023-02-11T13:17:53.206Z,8.31
2023-02-11T13:20:33.766Z,8.22
2023-02-11T13:23:10.112Z,8.28
2023-02-11T13:25:44.150Z,8.27
2023-02-11T13:28:26.803Z,8.26
2023-02-11T13:31:02.776Z,8.32
2023-02-11T13:33:39.418Z,8.25
2023-02-11T13:36:24.197Z,8.32
2023-02-11T13:38:55.259Z,8.41
2023-02-11T13:41:28.743Z,8.46
2023-02-11T13:44:02.360Z,8.46
2023-02-11T13:46:54.358Z,8.46
2023-02-11T13:49:25.605Z,8.42
2023-02-11T13:51:55.004Z,8.37
2023-02-11T13:54:31.260Z,8.34
2023-02-11T13:57:30.592Z,8.33
2023-02-11T13:59:59.453Z,8.36
2023-02-11T14:02:49.610Z,8.41
2023-02-11T14:05:44.050Z,8.42
2023-02-11T14:08:40.948Z,8.48
2023-02-11T14:11:14.696Z,8.46
2023-02-11T14:14:04.247Z,8.49
2023-02-11T14:16:38.346Z,8.47
2023-02-11T14:19:09.583Z,8.52
2023-02-11T14:21:45.177Z,8.55
2023-02-11T14:24:46.465Z,8.54
2023-02-11T14:27:21.462Z,8.55
2023-02-11T14:30:03.403Z,8.61
2023-02-11T14:32:43.216Z,8.62
2023-02-11T14:35:21.931Z,8.58
2023-02-11T14:37:58.300Z,8.57
2023-02-11T14:40:31.916Z,8.62
2023-02-11T14:43:08.694Z,8.60
2023-02-11T14:45:38.151Z,8.68
2023-02-11T14:48:08.825Z,8.71
2023-02-11T14:50:44.572Z,8.70
2023-02-11T14:53:16.436Z,8.72
2023-02-11T14:55:47.081Z,8.72
2023-02-11T14:58:17.490Z,8.71
2023-02-11T15:00:56.883Z,8.63
2023-02-11T15:03:29.539Z,8.71
2023-02-11T15:06:01.265Z,8.67
2023-02-11T15:08:31.840Z,8.68
2023-02-11T15:11:01.933Z,8.68
2023-02-11T15:13:32.106Z,8.70
2023-02-11T15:16:06.577Z,8.67
2023-02-11T15:18:38.538Z,8.71
2023-02-11T15:21:09.200Z,8.71
2023-02-11T15:23:56.841Z,8.75
2023-02-11T15:26:28.367Z,8.70
2023-02-11T15:28:56.384Z,8.77
2023-02-11T15:31:26.148Z,8.77
2023-02-11T15:33:54.829Z,8.78
2023-02-11T15:36:32.643Z,8.76
2023-02-11T15:39:20.907Z,8.79
2023-02-11T15:41:48.638Z,8.77
2023-02-11T15:44:30.165Z,8.76
2023-02-11T15:46:58.721Z,8.76
2023-02-11T15:49:27.457Z,8.71
2023-02-11T15:51:58.555Z,8.71
2023-02-11T15:54:29.509Z,8.69
2023-02-11T15:57:02.773Z,8.72
2023-02-11T15:59:35.351Z,8.73
2023-02-11T16:02:09.794Z,8.73
2023-02-11T16:04:38.317Z,8.71
2023-02-11T16:07:07.488Z,8.71
2023-02-11T16:09:37.074Z,8.63
2023-02-11T16:12:23.350Z,8.69
2023-02-11T16:14:51.051Z,8.69
2023-02-11T16:17:27.176Z,8.65
2023-02-11T16:19:55.841Z,8.69
2023-02-11T16:22:28.056Z,8.69
2023-02-11T16:24:59.084Z,8.69
2023-02-11T16:27:30.381Z,8.68
2023-02-11T16:29:59.338Z,8.68
2023-02-11T16:32:29.195Z,8.60
2023-02-11T16:34:58.846Z,8.66
2023-02-11T16:37:28.307Z,8.64
2023-02-11T16:39:56.157Z,8.64
2023-02-11T16:42:24.367Z,8.62
2023-02-11T16:44:52.052Z,8.60
2023-02-11T16:47:25.936Z,8.58
2023-02-11T16:49:54.122Z,8.57
2023-02-11T16:52:22.479Z,8.59
2023-02-11T16:54:51.942Z,8.58
2023-02-11T16:57:21.545Z,8.56
2023-02-11T16:59:49.672Z,8.55
2023-02-11T17:02:24.167Z,8.60
2023-02-11T17:04:53.661Z,8.50
2023-02-11T17:07:21.952Z,8.58
2023-02-11T17:09:51.697Z,8.52
2023-02-11T17:12:21.415Z,8.56
2023-02-11T17:14:49.432Z,8.52
2023-02-11T17:17:17.513Z,8.55
2023-02-11T17:19:45.331Z,8.57
2023-02-11T17:22:13.066Z,8.55
2023-02-11T17:24:40.822Z,8.57
2023-02-11T17:27:11.398Z,8.57
2023-02-11T17:29:42.311Z,8.46
2023-02-11T17:32:10.080Z,8.56
2023-02-11T17:34:37.890Z,8.58
2023-02-11T17:37:09.136Z,8.57
2023-02-11T17:39:37.201Z,8.48
2023-02-11T17:42:05.921Z,8.57
2023-02-11T17:44:35.651Z,8.51
2023-02-11T17:47:03.420Z,8.55
2023-02-11T17:49:31.192Z,8.53
2023-02-11T17:51:58.972Z,8.57
2023-02-11T17:54:26.727Z,8.56
2023-02-11T17:56:57.137Z,8.57
2023-02-11T17:59:26.485Z,8.54
2023-02-11T18:01:55.593Z,8.56
2023-02-11T18:04:23.355Z,8.57
2023-02-11T18:06:53.501Z,8.57
2023-02-11T18:09:21.296Z,8.55
2023-02-11T18:11:50.472Z,8.57
2023-02-11T18:14:18.144Z,8.54
2023-02-11T18:16:47.453Z,8.55
2023-02-11T18:19:16.660Z,8.54
2023-02-11T18:21:44.348Z,8.53
2023-02-11T18:24:12.103Z,8.50
2023-02-11T18:26:39.746Z,8.56
2023-02-11T18:29:07.544Z,8.54
2023-02-11T18:31:36.295Z,8.56
2023-02-11T18:34:05.529Z,8.55
2023-02-11T18:36:34.973Z,8.46
2023-02-11T18:39:02.668Z,8.53
2023-02-11T18:41:30.765Z,8.54
2023-02-11T18:44:02.665Z,8.57
2023-02-11T18:46:31.335Z,8.56
2023-02-11T18:48:59.153Z,8.55
2023-02-11T18:51:27.247Z,8.52
2023-02-11T18:53:56.296Z,8.54
2023-02-11T18:56:27.699Z,8.55
2023-02-11T18:58:56.500Z,8.54
2023-02-11T19:01:27.287Z,8.54
2023-02-11T19:03:57.187Z,8.48
2023-02-11T19:06:27.360Z,8.56
2023-02-11T19:09:00.097Z,8.49
2023-02-11T19:11:42.568Z,8.60
2023-02-11T19:14:11.177Z,8.57
2023-02-11T19:16:39.753Z,8.52
2023-02-11T19:19:08.345Z,8.58
2023-02-11T19:21:36.846Z,8.61
2023-02-11T19:24:08.944Z,8.43
2023-02-11T19:26:37.406Z,8.58
2023-02-11T19:29:05.962Z,8.58
2023-02-11T19:31:34.210Z,8.57
2023-02-11T19:34:03.099Z,8.56
2023-02-11T19:36:31.141Z,8.59
2023-02-11T19:39:02.333Z,8.56
2023-02-11T19:41:32.351Z,8.50
2023-02-11T19:44:00.190Z,8.45
2023-02-11T19:46:30.008Z,8.46
2023-02-11T19:48:57.962Z,8.43
2023-02-11T19:51:25.671Z,8.42
2023-02-11T19:53:53.911Z,8.46
2023-02-11T19:56:22.378Z,8.48
2023-02-11T19:58:51.474Z,8.44
2023-02-11T20:01:21.553Z,8.43
2023-02-11T20:03:50.876Z,8.48
2023-02-11T20:06:20.447Z,8.46
2023-02-11T20:08:48.223Z,8.41
2023-02-11T20:11:17.978Z,8.37
2023-02-11T20:13:45.731Z,8.48
2023-02-11T20:16:17.559Z,8.43
2023-02-11T20:18:46.591Z,8.43
2023-02-11T20:21:16.008Z,8.48
2023-02-11T20:23:46.483Z,8.45
2023-02-11T20:26:17.807Z,8.50
2023-02-11T20:28:46.363Z,8.51
2023-02-11T20:31:16.015Z,8.49
2023-02-11T20:33:44.641Z,8.42
2023-02-11T20:36:16.176Z,8.42
2023-02-11T20:38:44.728Z,8.42
2023-02-11T20:41:16.472Z,8.42
2023-02-11T20:43:46.519Z,8.45
2023-02-11T20:46:18.054Z,8.41
2023-02-11T20:48:46.026Z,8.38
2023-02-11T20:51:15.595Z,8.34
2023-02-11T20:53:47.951Z,8.34
2023-02-11T20:56:19.220Z,8.32
2023-02-11T20:58:47.816Z,8.30
2023-02-11T21:01:19.440Z,8.28
2023-02-11T21:03:51.231Z,8.26
2023-02-11T21:06:19.793Z,8.27
2023-02-11T21:08:47.985Z,8.31
2023-02-11T21:11:16.268Z,8.25
2023-02-11T21:13:44.085Z,8.35
2023-02-11T21:16:15.104Z,8.39
2023-02-11T21:18:44.285Z,8.39
2023-02-11T21:21:14.426Z,8.36
2023-02-11T21:23:42.223Z,8.41
2023-02-11T21:26:10.260Z,8.43
2023-02-11T21:28:40.803Z,8.42
2023-02-11T21:31:10.762Z,8.31
2023-02-11T21:33:39.039Z,8.40
2023-02-11T21:36:08.694Z,8.30
2023-02-11T21:38:36.563Z,8.39
2023-02-11T21:41:05.024Z,8.36
2023-02-11T21:43:35.588Z,8.35
2023-02-11T21:46:08.897Z,8.29
2023-02-11T21:48:36.640Z,8.32
2023-02-11T21:51:06.209Z,8.30
2023-02-11T21:53:35.848Z,8.26
2023-02-11T21:56:05.809Z,8.25
2023-02-11T21:58:36.297Z,8.23
2023-02-11T22:01:12.267Z,8.20
2023-02-11T22:03:40.403Z,8.30
2023-02-11T22:06:10.042Z,8.28
2023-02-11T22:08:40.310Z,8.29
2023-02-11T22:11:10.357Z,8.18
2023-02-11T22:13:38.359Z,8.22
2023-02-11T22:16:10.906Z,8.19
2023-02-11T22:18:39.680Z,8.19
2023-02-11T22:21:09.914Z,8.20
2023-02-11T22:23:40.470Z,8.22
2023-02-11T22:26:10.251Z,8.27
2023-02-11T22:28:40.515Z,8.30
2023-02-11T22:31:12.078Z,8.33
2023-02-11T22:33:41.166Z,8.29
2023-02-11T22:36:13.434Z,8.33
2023-02-11T22:38:42.617Z,8.34
2023-02-11T22:41:12.428Z,8.32
2023-02-11T22:43:42.020Z,8.32
2023-02-11T22:46:11.832Z,8.21
2023-02-11T22:48:39.694Z,8.27
2023-02-11T22:51:09.118Z,8.26
2023-02-11T22:53:37.340Z,8.12
2023-02-11T22:56:08.681Z,8.24
2023-02-11T22:58:37.577Z,8.23
2023-02-11T23:01:06.481Z,8.23
2023-02-11T23:03:34.973Z,8.20
2023-02-11T23:06:02.777Z,8.19
2023-02-11T23:08:31.860Z,8.20
2023-02-11T23:11:06.448Z,8.16
2023-02-11T23:13:35.640Z,8.17
2023-02-11T23:16:06.208Z,8.19
2023-02-11T23:18:34.315Z,8.16
2023-02-11T23:21:06.748Z,8.15
2023-02-11T23:23:35.204Z,8.15
2023-02-11T23:26:03.795Z,8.13
2023-02-11T23:28:33.004Z,8.13
2023-02-11T23:31:00.782Z,8.05
2023-02-11T23:33:28.805Z,8.09
2023-02-11T23:35:56.763Z,8.12
2023-02-11T23:38:24.760Z,8.15
2023-02-11T23:40:52.564Z,8.14
2023-02-11T23:43:22.739Z,8.15
2023-02-11T23:45:53.667Z,8.11
2023-02-11T23:48:22.928Z,8.05
2023-02-11T23:50:50.716Z,8.12
2023-02-11T23:53:18.452Z,8.13
2023-02-11T23:55:47.455Z,8.12
2023-02-11T23:58:16.112Z,8.00
